createdAt,value
2024-01-11T00:01:18.318Z,5.88
2024-01-11T00:03:45.626Z,8.43
2024-01-11T00:06:13.123Z,5.57
2024-01-11T00:08:40.575Z,6.97
2024-01-11T00:11:08.134Z,7.43
2024-01-11T00:13:35.446Z,7.50
2024-01-11T00:16:02.869Z,8.38
2024-01-11T00:18:30.273Z,6.57
2024-01-11T00:20:57.716Z,8.98
2024-01-11T00:23:25.119Z,5.60
2024-01-11T00:25:52.553Z,7.15
2024-01-11T00:28:20.094Z,6.70
2024-01-11T00:30:47.451Z,6.65
2024-01-11T00:33:15.046Z,8.73
2024-01-11T00:35:42.447Z,8.38
2024-01-11T00:38:09.920Z,6.38
2024-01-11T00:40:37.225Z,5.80
2024-01-11T00:43:04.746Z,7.43
2024-01-11T00:45:32.203Z,8.15
2024-01-11T00:47:59.574Z,9.35
2024-01-11T00:50:27.124Z,5.13
2024-01-11T00:52:54.515Z,5.20
2024-01-11T00:55:22.002Z,7.72
2024-01-11T00:57:49.249Z,4.55
2024-01-11T01:00:16.968Z,7.40
2024-01-11T01:02:44.986Z,8.35
2024-01-11T01:05:12.503Z,4.95
2024-01-11T01:07:39.806Z,5.93
2024-01-11T01:10:08.578Z,8.65
2024-01-11T01:12:35.856Z,5.45
2024-01-11T01:15:03.466Z,5.53
2024-01-11T01:17:30.917Z,7.03
2024-01-11T01:19:59.046Z,3.38
2024-01-11T01:22:26.412Z,6.53
2024-01-11T01:24:53.871Z,7.22
2024-01-11T01:27:21.196Z,6.50
2024-01-11T01:29:48.544Z,6.28
2024-01-11T01:32:16.117Z,7.82
2024-01-11T01:34:45.688Z,5.45
2024-01-11T01:37:13.950Z,5.68
2024-01-11T01:39:41.320Z,4.63
2024-01-11T01:42:08.733Z,7.15
2024-01-11T01:44:36.515Z,7.32
2024-01-11T01:47:06.012Z,5.25
2024-01-11T01:49:33.709Z,3.83
2024-01-11T01:52:01.461Z,4.25
2024-01-11T01:54:29.198Z,5.78
2024-01-11T01:56:57.455Z,3.47
2024-01-11T01:59:27.277Z,5.07
2024-01-11T02:01:55.547Z,6.72
2024-01-11T02:04:24.227Z,4.03
2024-01-11T02:06:55.039Z,7.80
2024-01-11T02:09:23.436Z,5.88
2024-01-11T02:11:53.606Z,5.03
2024-01-11T02:14:21.184Z,3.75
2024-01-11T02:16:48.619Z,6.95
2024-01-11T02:19:19.053Z,5.60
2024-01-11T02:21:49.892Z,3.17
2024-01-11T02:24:17.365Z,6.18
2024-01-11T02:27:02.105Z,8.73
2024-01-11T02:29:30.584Z,6.60
2024-01-11T02:31:58.586Z,3.80
2024-01-11T02:34:27.399Z,5.55
2024-01-11T02:36:58.222Z,5.78
2024-01-11T02:39:27.441Z,4.30
2024-01-11T02:41:57.584Z,6.47
2024-01-11T02:44:25.932Z,6.28
2024-01-11T02:46:53.426Z,8.00
2024-01-11T02:49:21.099Z,7.78
2024-01-11T02:51:48.677Z,4.85
2024-01-11T02:54:16.024Z,4.85
2024-01-11T02:56:43.681Z,5.53
2024-01-11T02:59:11.280Z,9.48
2024-01-11T03:01:38.748Z,5.03
2024-01-11T03:04:07.305Z,4.32
2024-01-11T03:06:34.985Z,6.32
2024-01-11T03:09:02.544Z,6.40
2024-01-11T03:11:29.957Z,6.57
2024-01-11T03:13:57.518Z,6.95
2024-01-11T03:16:24.961Z,7.72
2024-01-11T03:18:52.536Z,5.10
2024-01-11T03:21:20.010Z,8.60
2024-01-11T03:23:47.513Z,6.93
2024-01-11T03:26:18.560Z,9.25
2024-01-11T03:28:46.175Z,6.07
2024-01-11T03:31:13.539Z,7.53
2024-01-11T03:33:41.390Z,6.78
2024-01-11T03:36:12.326Z,7.07
2024-01-11T03:38:40.223Z,6.18
2024-01-11T03:41:13.667Z,7.47
2024-01-11T03:46:08.641Z,7.20
2024-01-11T03:48:39.501Z,7.60
2024-01-11T03:51:08.047Z,7.50
2024-01-11T03:53:38.295Z,8.05
2024-01-11T03:56:06.695Z,7.82
2024-01-11T03:58:34.341Z,5.90
2024-01-11T04:01:01.779Z,6.97
2024-01-11T04:03:29.103Z,12.00
2024-01-11T04:05:57.128Z,6.40
2024-01-11T04:08:24.536Z,7.78
2024-01-11T04:10:51.890Z,5.00
2024-01-11T04:13:19.698Z,9.10
2024-01-11T04:15:47.997Z,7.32
2024-01-11T04:18:15.667Z,5.15
2024-01-11T04:20:43.316Z,7.38
2024-01-11T04:23:10.845Z,5.72
2024-01-11T04:25:38.252Z,10.73
2024-01-11T04:28:05.791Z,7.72
2024-01-11T04:30:33.254Z,6.00
2024-01-11T04:33:00.988Z,6.13
2024-01-11T04:35:28.403Z,5.93
2024-01-11T04:37:55.904Z,7.28
2024-01-11T04:40:23.221Z,6.35
2024-01-11T04:42:50.583Z,7.35
2024-01-11T04:45:17.971Z,4.50
2024-01-11T04:47:45.580Z,6.07
2024-01-11T04:50:13.112Z,6.85
2024-01-11T04:52:40.473Z,5.75
2024-01-11T04:55:08.232Z,5.45
2024-01-11T04:57:35.687Z,4.80
2024-01-11T05:00:04.145Z,6.45
2024-01-11T05:02:31.922Z,5.75
2024-01-11T05:04:59.328Z,4.88
2024-01-11T05:07:28.914Z,6.47
2024-01-11T05:09:56.338Z,5.90
2024-01-11T05:12:23.905Z,7.50
2024-01-11T05:14:51.424Z,5.80
2024-01-11T05:17:18.891Z,4.68
2024-01-11T05:19:46.227Z,4.72
2024-01-11T05:22:13.689Z,4.55
2024-01-11T05:24:41.156Z,5.75
2024-01-11T05:27:08.818Z,5.50
2024-01-11T05:29:36.209Z,6.32
2024-01-11T05:32:04.114Z,5.15
2024-01-11T05:34:31.819Z,5.38
2024-01-11T05:37:00.931Z,5.85
2024-01-11T05:39:28.471Z,5.85
2024-01-11T05:41:56.185Z,6.65
2024-01-11T05:44:23.686Z,5.85
2024-01-11T05:46:51.002Z,3.72
2024-01-11T05:49:18.516Z,8.30
2024-01-11T05:51:45.823Z,6.93
2024-01-11T05:54:13.236Z,4.82
2024-01-11T05:56:40.655Z,7.05
2024-01-11T05:59:08.284Z,7.03
2024-01-11T06:01:42.908Z,6.50
2024-01-11T06:04:10.415Z,20.38
2024-01-11T06:06:37.879Z,8.82
2024-01-11T06:09:08.685Z,8.93
2024-01-11T06:11:36.070Z,6.90
2024-01-11T06:14:04.281Z,8.77
2024-01-11T06:16:31.683Z,8.38
2024-01-11T06:18:59.464Z,9.48
2024-01-11T06:21:27.020Z,8.38
2024-01-11T06:23:54.413Z,7.88
2024-01-11T06:26:22.045Z,8.70
2024-01-11T06:28:49.388Z,8.48
2024-01-11T06:31:16.849Z,9.45
2024-01-11T06:33:45.136Z,7.88
2024-01-11T06:36:13.622Z,9.95
2024-01-11T06:38:41.053Z,15.70
2024-01-11T06:41:08.717Z,11.40
2024-01-11T06:43:36.125Z,11.40
2024-01-11T06:46:05.545Z,10.88
2024-01-11T06:48:33.764Z,9.13
2024-01-11T06:51:02.423Z,10.45
2024-01-11T06:53:30.263Z,10.65
2024-01-11T06:55:57.803Z,9.02
2024-01-11T06:58:25.134Z,10.80
2024-01-11T07:00:52.564Z,11.27
2024-01-11T07:03:20.049Z,11.25
2024-01-11T07:05:47.742Z,12.40
2024-01-11T07:08:15.214Z,11.15
2024-01-11T07:10:43.680Z,14.00
2024-01-11T07:13:12.694Z,19.25
2024-01-11T07:15:40.085Z,14.60
2024-01-11T07:18:07.800Z,10.18
2024-01-11T07:20:35.202Z,10.25
2024-01-11T07:23:02.937Z,10.35
2024-01-11T07:25:30.358Z,13.77
2024-01-11T07:27:57.793Z,10.45
2024-01-11T07:30:25.124Z,12.10
2024-01-11T07:32:53.127Z,9.30
2024-01-11T07:35:21.709Z,10.70
2024-01-11T07:37:49.059Z,9.38
2024-01-11T07:40:16.439Z,9.60
2024-01-11T07:42:44.707Z,11.20
2024-01-11T07:45:12.056Z,7.70
2024-01-11T07:47:40.448Z,7.15
2024-01-11T07:50:08.996Z,12.23
2024-01-11T07:52:38.072Z,12.02
2024-01-11T07:55:11.204Z,8.57
2024-01-11T07:57:38.962Z,9.48
2024-01-11T08:00:12.898Z,9.95
2024-01-11T08:02:40.903Z,6.47
2024-01-11T08:05:09.156Z,9.57
2024-01-11T08:07:37.446Z,7.93
2024-01-11T08:10:05.658Z,10.27
2024-01-11T08:12:33.317Z,8.23
2024-01-11T08:15:00.664Z,10.07
2024-01-11T08:17:28.332Z,9.20
2024-01-11T08:19:57.883Z,9.98
2024-01-11T08:22:27.698Z,9.20
2024-01-11T08:24:55.471Z,6.93
2024-01-11T08:27:23.128Z,7.15
2024-01-11T08:29:51.057Z,11.70
2024-01-11T08:32:28.314Z,13.05
2024-01-11T08:34:59.694Z,6.20
2024-01-11T08:37:27.290Z,13.52
2024-01-11T08:39:54.622Z,8.65
2024-01-11T08:42:22.062Z,11.70
2024-01-11T08:44:49.471Z,64.13
2024-01-11T08:47:17.101Z,8.75
2024-01-11T08:49:44.638Z,11.85
2024-01-11T08:52:13.542Z,7.63
2024-01-11T08:54:40.870Z,8.13
2024-01-11T08:57:08.360Z,12.68
2024-01-11T08:59:37.023Z,7.43
2024-01-11T09:02:13.485Z,6.95
2024-01-11T09:04:44.089Z,12.45
2024-01-11T09:07:11.474Z,9.13
2024-01-11T09:09:44.490Z,11.23
2024-01-11T09:12:18.472Z,6.93
2024-01-11T09:14:45.937Z,11.90
2024-01-11T09:17:13.501Z,12.27
2024-01-11T09:19:41.541Z,14.52
2024-01-11T09:22:12.341Z,12.48
2024-01-11T09:24:40.453Z,10.90
2024-01-11T09:27:08.258Z,13.05
2024-01-11T09:29:35.724Z,11.88
2024-01-11T09:32:03.192Z,12.25
2024-01-11T09:34:30.717Z,10.77
2024-01-11T09:37:00.738Z,12.52
2024-01-11T09:39:28.361Z,10.38
2024-01-11T09:42:11.503Z,10.70
2024-01-11T09:44:42.467Z,16.75
2024-01-11T09:47:15.305Z,8.77
2024-01-11T09:49:46.731Z,10.82
2024-01-11T09:52:16.912Z,11.70
2024-01-11T09:54:44.426Z,9.02
2024-01-11T09:57:11.853Z,13.40
2024-01-11T09:59:40.476Z,9.30
2024-01-11T10:02:11.591Z,10.38
2024-01-11T10:04:39.089Z,10.40
2024-01-11T10:07:10.810Z,10.10
2024-01-11T10:09:38.941Z,12.00
2024-01-11T10:12:06.853Z,10.57
2024-01-11T10:14:34.424Z,9.15
2024-01-11T10:17:02.046Z,8.63
2024-01-11T10:19:29.920Z,10.18
2024-01-11T10:22:00.051Z,8.85
2024-01-11T10:24:28.002Z,9.95
2024-01-11T10:27:01.319Z,12.40
2024-01-11T10:29:37.879Z,14.85
2024-01-11T10:32:06.147Z,9.18
2024-01-11T10:34:34.841Z,10.20
2024-01-11T10:37:02.452Z,12.95
2024-01-11T10:39:36.851Z,9.93
2024-01-11T10:42:11.278Z,8.43
2024-01-11T10:44:45.020Z,9.50
2024-01-11T10:47:13.144Z,13.27
2024-01-11T10:49:42.627Z,5.78
2024-01-11T10:52:13.973Z,5.10
2024-01-11T10:54:43.390Z,6.95
2024-01-11T10:57:11.769Z,6.32
2024-01-11T10:59:42.118Z,6.70
2024-01-11T11:02:14.296Z,7.70
2024-01-11T11:04:44.364Z,9.13
2024-01-11T11:07:12.973Z,6.25
2024-01-11T11:09:45.357Z,6.85
2024-01-11T11:12:13.156Z,5.93
2024-01-11T11:14:41.543Z,7.63
2024-01-11T11:17:09.667Z,5.18
2024-01-11T11:19:38.088Z,4.80
2024-01-11T11:22:06.755Z,7.20
2024-01-11T11:24:37.400Z,8.45
2024-01-11T11:27:06.682Z,6.40
2024-01-11T11:29:33.952Z,8.27
2024-01-11T11:32:04.827Z,6.38
2024-01-11T11:34:53.955Z,8.85
2024-01-11T11:37:25.613Z,7.65
2024-01-11T11:39:54.576Z,10.57
2024-01-11T11:42:27.217Z,10.27
2024-01-11T11:44:54.853Z,9.07
2024-01-11T11:47:24.765Z,8.82
2024-01-11T11:50:11.409Z,9.60
2024-01-11T11:52:40.594Z,14.18
2024-01-11T11:55:11.056Z,10.23
2024-01-11T11:57:38.711Z,10.73
2024-01-11T12:00:07.520Z,6.47
2024-01-11T12:02:42.134Z,9.07
2024-01-11T12:05:09.922Z,9.93
2024-01-11T12:07:37.453Z,10.45
2024-01-11T12:10:06.271Z,6.30
2024-01-11T12:12:35.776Z,6.43
2024-01-11T12:15:07.364Z,7.57
2024-01-11T12:17:35.157Z,12.02
2024-01-11T12:20:02.944Z,7.20
2024-01-11T12:22:30.466Z,7.85
2024-01-11T12:24:57.868Z,7.20
2024-01-11T12:27:25.538Z,8.63
2024-01-11T12:29:58.862Z,8.80
2024-01-11T12:32:28.340Z,12.65
2024-01-11T12:34:56.889Z,9.20
2024-01-11T12:37:24.314Z,8.23
2024-01-11T12:39:57.770Z,11.60
2024-01-11T12:42:25.121Z,8.85
2024-01-11T12:44:54.365Z,10.13
2024-01-11T12:47:22.986Z,12.27
2024-01-11T12:49:53.344Z,13.43
2024-01-11T12:52:20.995Z,8.80
2024-01-11T12:54:48.545Z,11.40
2024-01-11T12:57:22.509Z,11.65
2024-01-11T12:59:50.402Z,17.10
2024-01-11T13:02:20.480Z,22.17
2024-01-11T13:04:48.269Z,11.10
2024-01-11T13:07:17.341Z,11.60
2024-01-11T13:09:44.673Z,10.02
2024-01-11T13:12:11.938Z,9.77
2024-01-11T13:14:41.144Z,9.73
2024-01-11T13:17:09.094Z,9.60
2024-01-11T13:19:37.053Z,8.52
2024-01-11T13:22:04.600Z,10.23
2024-01-11T13:24:32.508Z,9.30
2024-01-11T13:26:59.914Z,12.95
2024-01-11T13:29:27.604Z,11.25
2024-01-11T13:31:54.976Z,15.55
2024-01-11T13:34:22.453Z,12.50
2024-01-11T13:36:49.797Z,9.35
2024-01-11T13:39:19.684Z,10.93
2024-01-11T13:41:47.255Z,11.30
2024-01-11T13:44:15.158Z,9.88
2024-01-11T13:46:42.641Z,7.03
2024-01-11T13:49:10.437Z,8.48
2024-01-11T13:51:46.410Z,12.40
2024-01-11T13:54:22.737Z,10.43
2024-01-11T13:56:52.999Z,9.82
2024-01-11T13:59:21.246Z,8.48
2024-01-11T14:01:48.784Z,12.32
2024-01-11T14:04:16.074Z,14.60
2024-01-11T14:06:43.763Z,13.60
2024-01-11T14:09:11.277Z,13.13
2024-01-11T14:11:38.904Z,15.52
2024-01-11T14:14:06.842Z,16.80
2024-01-11T14:16:34.245Z,18.02
2024-01-11T14:19:02.812Z,15.20
2024-01-11T14:21:30.771Z,15.18
2024-01-11T14:23:58.552Z,17.05
2024-01-11T14:26:26.179Z,17.20
2024-01-11T14:28:55.579Z,17.92
2024-01-11T14:31:22.973Z,19.98
2024-01-11T14:33:51.340Z,17.63
2024-01-11T14:36:18.945Z,19.73
2024-01-11T14:38:46.446Z,17.48
2024-01-11T14:41:15.294Z,19.08
2024-01-11T14:43:42.594Z,20.33
2024-01-11T14:46:12.273Z,20.15
2024-01-11T14:48:39.834Z,19.63
2024-01-11T14:51:09.063Z,36.10
2024-01-11T14:53:36.428Z,40.22
2024-01-11T14:56:04.197Z,33.70
2024-01-11T14:58:31.439Z,26.23
2024-01-11T15:00:59.396Z,21.73
2024-01-11T15:03:26.783Z,19.33
2024-01-11T15:05:54.948Z,20.88
2024-01-11T15:08:22.525Z,25.02
2024-01-11T15:10:50.283Z,26.27
2024-01-11T15:13:17.806Z,23.25
2024-01-11T15:15:45.282Z,22.95
2024-01-11T15:18:13.249Z,21.00
2024-01-11T15:20:42.475Z,26.73
2024-01-11T15:23:09.953Z,22.55
2024-01-11T15:25:37.421Z,22.10
2024-01-11T15:28:04.853Z,22.33
2024-01-11T15:30:32.390Z,24.90
2024-01-11T15:33:02.090Z,23.65
2024-01-11T15:35:30.208Z,24.90
2024-01-11T15:37:57.757Z,26.40
2024-01-11T15:40:25.276Z,26.63
2024-01-11T15:42:53.644Z,24.58
2024-01-11T15:45:21.747Z,23.52
2024-01-11T15:47:49.305Z,31.50
2024-01-11T15:50:16.925Z,36.55
2024-01-11T15:52:44.196Z,31.52
2024-01-11T15:55:11.710Z,31.80
2024-01-11T15:57:39.134Z,28.45
2024-01-11T16:00:11.429Z,27.02
2024-01-11T16:02:41.885Z,23.83
2024-01-11T16:05:11.370Z,27.08
2024-01-11T16:07:39.804Z,24.10
2024-01-11T16:10:07.666Z,30.30
2024-01-11T16:12:35.100Z,24.67
2024-01-11T16:15:02.895Z,31.23
2024-01-11T16:17:32.241Z,28.38
2024-01-11T16:20:00.672Z,24.88
2024-01-11T16:22:28.064Z,27.40
2024-01-11T16:24:55.797Z,31.52
2024-01-11T16:27:23.072Z,28.45
2024-01-11T16:29:50.584Z,28.02
2024-01-11T16:32:19.270Z,23.25
2024-01-11T16:34:47.276Z,27.15
2024-01-11T16:37:15.547Z,25.02
2024-01-11T16:39:44.586Z,27.13
2024-01-11T16:42:13.304Z,25.52
2024-01-11T16:44:41.258Z,26.85
2024-01-11T16:47:08.908Z,24.70
2024-01-11T16:49:37.472Z,22.33
2024-01-11T16:52:06.024Z,27.75
2024-01-11T16:54:33.324Z,31.98
2024-01-11T16:57:00.756Z,26.05
2024-01-11T16:59:28.308Z,26.92
2024-01-11T17:01:55.762Z,27.95
2024-01-11T17:04:23.076Z,31.58
2024-01-11T17:06:50.593Z,39.75
2024-01-11T17:09:17.903Z,68.75
2024-01-11T17:11:45.489Z,50.42
2024-01-11T17:14:12.908Z,41.10
2024-01-11T17:16:40.214Z,34.10
2024-01-11T17:19:07.685Z,35.83
2024-01-11T17:21:35.023Z,32.20
2024-01-11T17:24:03.072Z,31.90
2024-01-11T17:26:31.104Z,36.60
2024-01-11T17:28:59.066Z,30.30
2024-01-11T17:31:27.016Z,28.88
2024-01-11T17:33:54.917Z,30.63
2024-01-11T17:36:22.369Z,32.35
2024-01-11T17:38:50.396Z,26.05
2024-01-11T17:41:17.754Z,23.33
2024-01-11T17:43:49.446Z,23.90
2024-01-11T17:46:29.556Z,27.27
2024-01-11T17:48:59.301Z,23.02
2024-01-11T17:51:27.659Z,21.60
2024-01-11T17:53:55.209Z,24.45
2024-01-11T17:56:22.848Z,30.33
2024-01-11T17:58:50.442Z,26.83
2024-01-11T18:01:22.512Z,30.58
2024-01-11T18:03:50.225Z,27.70
2024-01-11T18:06:18.405Z,30.38
2024-01-11T18:08:46.144Z,25.05
2024-01-11T18:11:14.379Z,30.25
2024-01-11T18:13:41.936Z,31.73
2024-01-11T18:16:09.364Z,32.03
2024-01-11T18:18:37.058Z,31.13
2024-01-11T18:21:05.193Z,31.92
2024-01-11T18:23:33.551Z,28.63
2024-01-11T18:26:00.816Z,30.42
2024-01-11T18:28:28.145Z,26.80
2024-01-11T18:30:55.513Z,27.10
2024-01-11T18:33:26.071Z,30.30
2024-01-11T18:35:55.161Z,29.67
2024-01-11T18:38:24.194Z,29.45
2024-01-11T18:40:51.751Z,29.77
2024-01-11T18:43:19.270Z,30.88
2024-01-11T18:45:47.936Z,31.85
2024-01-11T18:48:17.671Z,27.20
2024-01-11T18:50:45.919Z,29.17
2024-01-11T18:53:13.694Z,25.92
2024-01-11T18:55:40.955Z,34.97
2024-01-11T18:58:08.508Z,29.83
2024-01-11T19:00:36.210Z,29.80
2024-01-11T19:03:04.363Z,26.98
2024-01-11T19:05:32.468Z,31.20
2024-01-11T19:08:00.422Z,33.85
2024-01-11T19:10:27.832Z,35.15
2024-01-11T19:12:56.446Z,32.55
2024-01-11T19:15:23.876Z,35.28
2024-01-11T19:17:53.012Z,33.35
2024-01-11T19:20:21.271Z,30.80
2024-01-11T19:22:48.724Z,33.42
2024-01-11T19:25:16.045Z,29.83
2024-01-11T19:27:43.567Z,31.45
2024-01-11T19:30:11.760Z,33.65
2024-01-11T19:32:39.294Z,31.27
2024-01-11T19:35:07.165Z,30.58
2024-01-11T19:37:34.642Z,33.75
2024-01-11T19:40:01.989Z,28.98
2024-01-11T19:42:29.364Z,32.10
2024-01-11T19:44:56.769Z,27.45
2024-01-11T19:47:24.372Z,31.17
2024-01-11T19:49:51.825Z,37.00
2024-01-11T19:52:19.313Z,36.53
2024-01-11T19:54:47.345Z,33.33
2024-01-11T19:57:14.830Z,34.20
2024-01-11T19:59:43.429Z,27.73
2024-01-11T20:02:12.162Z,27.00
2024-01-11T20:04:39.841Z,26.73
2024-01-11T20:07:07.392Z,28.35
2024-01-11T20:09:34.955Z,24.90
2024-01-11T20:12:02.348Z,23.13
2024-01-11T20:14:29.825Z,24.40
2024-01-11T20:16:57.338Z,22.77
2024-01-11T20:19:24.881Z,22.35
2024-01-11T20:21:52.315Z,22.27
2024-01-11T20:24:20.067Z,24.38
2024-01-11T20:26:50.968Z,27.10
2024-01-11T20:29:19.867Z,25.20
2024-01-11T20:31:47.195Z,31.40
2024-01-11T20:34:15.545Z,31.15
2024-01-11T20:36:43.512Z,34.80
2024-01-11T20:39:11.787Z,30.02
2024-01-11T20:41:47.897Z,28.20
2024-01-11T20:44:17.231Z,30.10
2024-01-11T20:46:45.166Z,29.70
2024-01-11T20:49:13.208Z,27.48
2024-01-11T20:51:43.194Z,28.65
2024-01-11T20:54:10.893Z,32.00
2024-01-11T20:56:45.580Z,33.55
2024-01-11T20:59:13.248Z,29.33
2024-01-11T21:01:40.905Z,29.70
2024-01-11T21:04:08.500Z,26.58
2024-01-11T21:06:35.906Z,28.15
2024-01-11T21:09:03.829Z,30.27
2024-01-11T21:11:31.283Z,30.05
2024-01-11T21:13:58.594Z,26.88
2024-01-11T21:16:25.900Z,31.42
2024-01-11T21:18:55.316Z,29.83
2024-01-11T21:21:24.769Z,29.55
2024-01-11T21:24:01.148Z,29.38
2024-01-11T21:26:30.109Z,27.52
2024-01-11T21:28:57.809Z,31.30
2024-01-11T21:31:29.829Z,29.30
2024-01-11T21:33:57.397Z,30.65
2024-01-11T21:36:25.324Z,32.03
2024-01-11T21:38:56.233Z,28.83
2024-01-11T21:41:25.833Z,30.00
2024-01-11T21:43:54.311Z,26.38
2024-01-11T21:46:22.155Z,30.48
2024-01-11T21:48:50.074Z,25.88
2024-01-11T21:51:18.256Z,26.65
2024-01-11T21:53:45.745Z,29.42
2024-01-11T21:56:14.271Z,24.38
2024-01-11T21:58:41.665Z,24.63
2024-01-11T22:01:09.328Z,28.35
2024-01-11T22:03:37.235Z,29.00
2024-01-11T22:06:05.235Z,28.73
2024-01-11T22:08:32.947Z,23.02
2024-01-11T22:11:00.212Z,19.55
2024-01-11T22:13:27.698Z,18.50
2024-01-11T22:15:55.061Z,21.80
2024-01-11T22:18:22.812Z,18.45
2024-01-11T22:20:50.411Z,12.40
2024-01-11T22:23:23.181Z,16.33
2024-01-11T22:25:50.706Z,14.65
2024-01-11T22:28:34.064Z,11.55
2024-01-11T22:31:02.195Z,12.70
2024-01-11T22:33:29.858Z,14.25
2024-01-11T22:35:57.498Z,13.45
2024-01-11T22:38:24.983Z,15.30
2024-01-11T22:40:52.468Z,10.43
2024-01-11T22:43:19.907Z,6.95
2024-01-11T22:45:47.224Z,11.02
2024-01-11T22:48:14.695Z,6.20
2024-01-11T22:50:42.158Z,8.25
2024-01-11T22:53:09.621Z,6.85
2024-01-11T22:55:37.313Z,11.35
2024-01-11T22:58:04.894Z,10.30
2024-01-11T23:00:32.261Z,11.52
2024-01-11T23:02:59.808Z,9.32
2024-01-11T23:05:28.267Z,10.90
2024-01-11T23:07:55.663Z,8.75
2024-01-11T23:10:22.974Z,8.88
2024-01-11T23:12:50.372Z,10.45
2024-01-11T23:15:17.906Z,9.68
2024-01-11T23:17:45.355Z,14.20
2024-01-11T23:20:13.473Z,15.38
2024-01-11T23:22:40.690Z,12.10
2024-01-11T23:25:08.539Z,13.65
2024-01-11T23:27:35.844Z,11.43
2024-01-11T23:30:04.418Z,10.43
2024-01-11T23:32:31.878Z,11.27
2024-01-11T23:34:59.453Z,8.05
2024-01-11T23:37:26.929Z,8.32
2024-01-11T23:39:54.317Z,9.25
2024-01-11T23:42:21.625Z,11.55
2024-01-11T23:44:49.764Z,13.63
2024-01-11T23:47:17.168Z,13.88
2024-01-11T23:49:44.621Z,14.45
2024-01-11T23:52:12.245Z,12.88
2024-01-11T23:54:39.951Z,16.38
2024-01-11T23:57:07.359Z,16.48
2024-01-11T23:59:35.874Z,11.30
